sensor_id;sensor_type;location;lat;lon;timestamp;pressure;altitude;pressure_sealevel;temperature;humidity
75815;BME280;70031;45.570;14.228;2023-06-24T00:01:06;96998.19;;;20.36;48.37
75815;BME280;70031;45.570;14.228;2023-06-24T00:03:07;96996.78;;;20.42;47.52
75815;BME280;70031;45.570;14.228;2023-06-24T00:05:08;96995.03;;;20.22;48.92
75815;BME280;70031;45.570;14.228;2023-06-24T00:07:08;96999.06;;;20.12;49.01
75815;BME280;70031;45.570;14.228;2023-06-24T00:09:08;96993.09;;;20.22;49.70
75815;BME280;70031;45.570;14.228;2023-06-24T00:11:09;97008.28;;;20.35;49.49
75815;BME280;70031;45.570;14.228;2023-06-24T00:13:10;97000.38;;;20.30;49.19
75815;BME280;70031;45.570;14.228;2023-06-24T00:15:10;97008.19;;;20.04;50.59
75815;BME280;70031;45.570;14.228;2023-06-24T00:17:10;96995.47;;;19.83;51.32
75815;BME280;70031;45.570;14.228;2023-06-24T00:19:11;97009.50;;;19.70;52.52
75815;BME280;70031;45.570;14.228;2023-06-24T00:21:11;97000.84;;;19.68;53.00
75815;BME280;70031;45.570;14.228;2023-06-24T00:23:13;97009.69;;;19.40;54.70
75815;BME280;70031;45.570;14.228;2023-06-24T00:25:17;97010.25;;;19.33;56.68
75815;BME280;70031;45.570;14.228;2023-06-24T00:27:18;97008.94;;;19.64;51.72
75815;BME280;70031;45.570;14.228;2023-06-24T00:29:19;97007.78;;;19.65;52.34
75815;BME280;70031;45.570;14.228;2023-06-24T00:31:19;97007.88;;;19.69;51.34
75815;BME280;70031;45.570;14.228;2023-06-24T00:33:20;97027.25;;;19.63;53.59
75815;BME280;70031;45.570;14.228;2023-06-24T00:35:21;97024.03;;;19.49;55.47
75815;BME280;70031;45.570;14.228;2023-06-24T00:37:27;97038.16;;;19.63;51.56
75815;BME280;70031;45.570;14.228;2023-06-24T00:39:33;97025.50;;;19.83;51.37
75815;BME280;70031;45.570;14.228;2023-06-24T00:41:34;97023.44;;;20.05;50.05
75815;BME280;70031;45.570;14.228;2023-06-24T00:43:38;97030.66;;;20.25;48.83
75815;BME280;70031;45.570;14.228;2023-06-24T00:45:42;97034.41;;;20.45;47.68
75815;BME280;70031;45.570;14.228;2023-06-24T00:47:43;97038.28;;;20.44;48.92
75815;BME280;70031;45.570;14.228;2023-06-24T00:49:44;97025.84;;;20.46;48.62
75815;BME280;70031;45.570;14.228;2023-06-24T00:51:46;97022.31;;;20.46;47.85
75815;BME280;70031;45.570;14.228;2023-06-24T00:53:50;97019.00;;;20.68;47.14
75815;BME280;70031;45.570;14.228;2023-06-24T00:55:51;97014.59;;;20.64;47.70
75815;BME280;70031;45.570;14.228;2023-06-24T00:57:52;97022.75;;;20.76;46.76
75815;BME280;70031;45.570;14.228;2023-06-24T00:59:53;97023.41;;;20.85;45.87
75815;BME280;70031;45.570;14.228;2023-06-24T01:01:53;97022.06;;;20.79;47.22
75815;BME280;70031;45.570;14.228;2023-06-24T01:03:54;97023.72;;;20.84;46.64
75815;BME280;70031;45.570;14.228;2023-06-24T01:05:54;97023.66;;;20.80;46.21
75815;BME280;70031;45.570;14.228;2023-06-24T01:07:55;97021.31;;;20.66;47.78
75815;BME280;70031;45.570;14.228;2023-06-24T01:09:56;97013.66;;;20.72;46.78
75815;BME280;70031;45.570;14.228;2023-06-24T01:11:57;97017.44;;;20.67;46.76
75815;BME280;70031;45.570;14.228;2023-06-24T01:13:58;97025.31;;;20.69;46.92
75815;BME280;70031;45.570;14.228;2023-06-24T01:16:00;97021.88;;;20.72;47.68
75815;BME280;70031;45.570;14.228;2023-06-24T01:18:13;97019.63;;;20.62;47.28
75815;BME280;70031;45.570;14.228;2023-06-24T01:23:11;97026.19;;;20.73;46.20
75815;BME280;70031;45.570;14.228;2023-06-24T01:29:52;97036.44;;;20.36;48.57
75815;BME280;70031;45.570;14.228;2023-06-24T01:32:02;97042.53;;;20.17;51.92
75815;BME280;70031;45.570;14.228;2023-06-24T01:36:36;97032.16;;;20.23;47.99
75815;BME280;70031;45.570;14.228;2023-06-24T01:38:45;97037.72;;;20.26;47.83
75815;BME280;70031;45.570;14.228;2023-06-24T01:40:47;97040.34;;;20.23;47.89
75815;BME280;70031;45.570;14.228;2023-06-24T01:42:49;97035.78;;;20.27;48.47
75815;BME280;70031;45.570;14.228;2023-06-24T01:44:51;97033.47;;;20.41;48.97
75815;BME280;70031;45.570;14.228;2023-06-24T01:46:55;97032.59;;;20.65;45.77
75815;BME280;70031;45.570;14.228;2023-06-24T01:49:01;97034.03;;;20.74;46.57
75815;BME280;70031;45.570;14.228;2023-06-24T01:51:07;97039.34;;;20.83;46.30
75815;BME280;70031;45.570;14.228;2023-06-24T01:53:09;97046.03;;;20.70;46.49
75815;BME280;70031;45.570;14.228;2023-06-24T01:55:16;97047.44;;;20.64;46.97
75815;BME280;70031;45.570;14.228;2023-06-24T01:57:20;97055.28;;;20.65;47.76
75815;BME280;70031;45.570;14.228;2023-06-24T01:59:21;97056.72;;;20.47;49.96
75815;BME280;70031;45.570;14.228;2023-06-24T02:01:22;97060.94;;;20.44;48.11
75815;BME280;70031;45.570;14.228;2023-06-24T02:03:24;97056.66;;;20.59;46.94
75815;BME280;70031;45.570;14.228;2023-06-24T02:05:26;97058.44;;;20.67;46.51
75815;BME280;70031;45.570;14.228;2023-06-24T02:07:32;97056.63;;;20.71;46.49
75815;BME280;70031;45.570;14.228;2023-06-24T02:09:33;97060.25;;;20.75;47.03
75815;BME280;70031;45.570;14.228;2023-06-24T02:11:34;97053.19;;;20.74;45.32
75815;BME280;70031;45.570;14.228;2023-06-24T02:13:37;97055.03;;;20.70;47.39
75815;BME280;70031;45.570;14.228;2023-06-24T02:15:39;97054.19;;;20.54;47.79
75815;BME280;70031;45.570;14.228;2023-06-24T02:17:41;97057.44;;;20.60;46.29
75815;BME280;70031;45.570;14.228;2023-06-24T02:19:43;97050.16;;;20.64;45.70
75815;BME280;70031;45.570;14.228;2023-06-24T02:21:44;97053.53;;;20.73;46.44
75815;BME280;70031;45.570;14.228;2023-06-24T02:23:45;97046.97;;;20.62;46.12
75815;BME280;70031;45.570;14.228;2023-06-24T02:25:46;97060.16;;;20.72;45.65
75815;BME280;70031;45.570;14.228;2023-06-24T02:27:48;97057.19;;;20.93;45.89
75815;BME280;70031;45.570;14.228;2023-06-24T02:29:48;97059.72;;;20.70;47.27
75815;BME280;70031;45.570;14.228;2023-06-24T02:31:49;97051.09;;;20.56;47.60
75815;BME280;70031;45.570;14.228;2023-06-24T02:33:50;97052.84;;;20.36;47.20
75815;BME280;70031;45.570;14.228;2023-06-24T02:35:50;97050.91;;;20.36;46.77
75815;BME280;70031;45.570;14.228;2023-06-24T02:37:51;97053.63;;;20.48;47.11
75815;BME280;70031;45.570;14.228;2023-06-24T02:39:51;97054.19;;;20.54;47.68
75815;BME280;70031;45.570;14.228;2023-06-24T02:41:51;97049.06;;;20.40;48.24
75815;BME280;70031;45.570;14.228;2023-06-24T02:43:52;97068.78;;;20.34;48.20
75815;BME280;70031;45.570;14.228;2023-06-24T02:45:55;97049.66;;;20.34;49.15
75815;BME280;70031;45.570;14.228;2023-06-24T02:47:58;97068.16;;;20.65;46.15
75815;BME280;70031;45.570;14.228;2023-06-24T02:50:00;97069.31;;;20.64;47.42
75815;BME280;70031;45.570;14.228;2023-06-24T02:52:02;97060.44;;;20.42;48.74
75815;BME280;70031;45.570;14.228;2023-06-24T02:54:03;97057.47;;;20.07;50.39
75815;BME280;70031;45.570;14.228;2023-06-24T02:56:04;97061.66;;;20.17;49.12
75815;BME280;70031;45.570;14.228;2023-06-24T02:58:05;97064.88;;;20.07;51.26
75815;BME280;70031;45.570;14.228;2023-06-24T03:00:08;97062.47;;;20.05;49.36
75815;BME280;70031;45.570;14.228;2023-06-24T03:02:12;97061.47;;;19.98;50.24
75815;BME280;70031;45.570;14.228;2023-06-24T03:04:13;97060.34;;;19.86;49.32
75815;BME280;70031;45.570;14.228;2023-06-24T03:06:13;97062.47;;;19.93;49.41
75815;BME280;70031;45.570;14.228;2023-06-24T03:08:17;97075.31;;;20.29;46.50
75815;BME280;70031;45.570;14.228;2023-06-24T03:10:18;97074.63;;;20.20;48.03
75815;BME280;70031;45.570;14.228;2023-06-24T03:12:18;97069.31;;;20.52;45.92
75815;BME280;70031;45.570;14.228;2023-06-24T03:14:19;97062.25;;;20.63;46.38
75815;BME280;70031;45.570;14.228;2023-06-24T03:16:20;97062.47;;;20.58;45.04
75815;BME280;70031;45.570;14.228;2023-06-24T03:18:20;97058.16;;;20.57;46.82
75815;BME280;70031;45.570;14.228;2023-06-24T03:20:23;97053.75;;;20.40;47.21
75815;BME280;70031;45.570;14.228;2023-06-24T03:22:24;97055.06;;;20.58;46.77
75815;BME280;70031;45.570;14.228;2023-06-24T03:24:24;97054.66;;;20.32;47.33
75815;BME280;70031;45.570;14.228;2023-06-24T03:26:37;97048.50;;;20.35;48.14
75815;BME280;70031;45.570;14.228;2023-06-24T03:28:38;97058.25;;;20.20;49.54
75815;BME280;70031;45.570;14.228;2023-06-24T03:30:38;97050.31;;;20.03;50.45
75815;BME280;70031;45.570;14.228;2023-06-24T03:32:39;97076.63;;;19.95;52.48
75815;BME280;70031;45.570;14.228;2023-06-24T03:34:39;97055.91;;;19.82;52.57
75815;BME280;70031;45.570;14.228;2023-06-24T03:36:40;97056.47;;;19.63;52.92
75815;BME280;70031;45.570;14.228;2023-06-24T03:38:40;97064.09;;;19.57;53.23
75815;BME280;70031;45.570;14.228;2023-06-24T03:40:41;97059.97;;;19.51;54.05
75815;BME280;70031;45.570;14.228;2023-06-24T03:42:41;97072.34;;;19.49;52.94
75815;BME280;70031;45.570;14.228;2023-06-24T03:44:42;97086.47;;;19.39;57.64
75815;BME280;70031;45.570;14.228;2023-06-24T03:46:43;97081.25;;;19.46;52.62
75815;BME280;70031;45.570;14.228;2023-06-24T03:48:43;97084.00;;;19.82;49.93
75815;BME280;70031;45.570;14.228;2023-06-24T03:50:43;97089.69;;;19.89;51.67
75815;BME280;70031;45.570;14.228;2023-06-24T03:52:44;97069.66;;;19.98;49.91
75815;BME280;70031;45.570;14.228;2023-06-24T03:54:44;97095.03;;;19.98;51.84
75815;BME280;70031;45.570;14.228;2023-06-24T03:56:45;97077.41;;;19.96;50.77
75815;BME280;70031;45.570;14.228;2023-06-24T03:58:45;97084.22;;;19.89;52.75
75815;BME280;70031;45.570;14.228;2023-06-24T04:00:45;97096.66;;;19.87;51.17
75815;BME280;70031;45.570;14.228;2023-06-24T04:02:46;97094.00;;;19.90;51.61
75815;BME280;70031;45.570;14.228;2023-06-24T04:04:47;97101.44;;;19.78;52.58
75815;BME280;70031;45.570;14.228;2023-06-24T04:06:51;97100.72;;;19.81;53.50
75815;BME280;70031;45.570;14.228;2023-06-24T04:08:51;97097.44;;;19.75;53.26
75815;BME280;70031;45.570;14.228;2023-06-24T04:10:52;97095.72;;;19.71;53.79
75815;BME280;70031;45.570;14.228;2023-06-24T04:12:52;97101.88;;;19.80;53.85
75815;BME280;70031;45.570;14.228;2023-06-24T04:14:52;97094.69;;;19.63;53.90
75815;BME280;70031;45.570;14.228;2023-06-24T04:16:53;97104.03;;;19.86;52.33
75815;BME280;70031;45.570;14.228;2023-06-24T04:18:53;97114.50;;;19.72;52.80
75815;BME280;70031;45.570;14.228;2023-06-24T04:20:54;97104.16;;;19.78;54.83
75815;BME280;70031;45.570;14.228;2023-06-24T04:22:54;97107.91;;;19.73;54.81
75815;BME280;70031;45.570;14.228;2023-06-24T04:24:54;97116.22;;;19.89;52.43
75815;BME280;70031;45.570;14.228;2023-06-24T04:26:55;97118.13;;;20.01;52.91
75815;BME280;70031;45.570;14.228;2023-06-24T04:28:55;97116.91;;;19.86;54.61
75815;BME280;70031;45.570;14.228;2023-06-24T04:30:56;97121.34;;;19.78;55.22
75815;BME280;70031;45.570;14.228;2023-06-24T04:32:56;97116.88;;;19.74;51.83
75815;BME280;70031;45.570;14.228;2023-06-24T04:34:58;97121.09;;;19.96;53.71
75815;BME280;70031;45.570;14.228;2023-06-24T04:36:59;97125.31;;;19.93;53.55
75815;BME280;70031;45.570;14.228;2023-06-24T04:39:03;97129.63;;;20.18;51.46
75815;BME280;70031;45.570;14.228;2023-06-24T04:41:03;97126.56;;;20.20;52.96
75815;BME280;70031;45.570;14.228;2023-06-24T04:43:03;97123.81;;;20.20;51.20
75815;BME280;70031;45.570;14.228;2023-06-24T04:45:04;97122.69;;;20.21;50.68
75815;BME280;70031;45.570;14.228;2023-06-24T04:47:05;97129.72;;;20.34;52.05
75815;BME280;70031;45.570;14.228;2023-06-24T04:49:06;97134.63;;;20.16;54.27
75815;BME280;70031;45.570;14.228;2023-06-24T04:51:06;97113.81;;;20.12;51.00
75815;BME280;70031;45.570;14.228;2023-06-24T04:53:07;97122.78;;;20.25;49.92
75815;BME280;70031;45.570;14.228;2023-06-24T04:55:07;97136.44;;;20.37;52.93
75815;BME280;70031;45.570;14.228;2023-06-24T04:57:09;97140.88;;;20.17;52.85
75815;BME280;70031;45.570;14.228;2023-06-24T04:59:22;97126.31;;;20.01;52.73
75815;BME280;70031;45.570;14.228;2023-06-24T05:01:23;97138.84;;;20.02;52.12
75815;BME280;70031;45.570;14.228;2023-06-24T05:03:23;97143.06;;;19.99;52.48
75815;BME280;70031;45.570;14.228;2023-06-24T05:05:23;97160.69;;;20.02;53.71
75815;BME280;70031;45.570;14.228;2023-06-24T05:07:24;97158.88;;;19.81;56.24
75815;BME280;70031;45.570;14.228;2023-06-24T05:09:24;97150.00;;;19.72;54.76
75815;BME280;70031;45.570;14.228;2023-06-24T05:11:24;97156.59;;;19.83;54.49
75815;BME280;70031;45.570;14.228;2023-06-24T05:13:27;97150.13;;;19.88;54.13
75815;BME280;70031;45.570;14.228;2023-06-24T05:15:27;97163.69;;;19.97;54.24
75815;BME280;70031;45.570;14.228;2023-06-24T05:17:28;97156.38;;;20.01;54.82
75815;BME280;70031;45.570;14.228;2023-06-24T05:19:28;97159.78;;;20.10;52.08
75815;BME280;70031;45.570;14.228;2023-06-24T05:21:29;97170.72;;;20.10;52.13
75815;BME280;70031;45.570;14.228;2023-06-24T05:23:29;97181.88;;;20.29;52.49
75815;BME280;70031;45.570;14.228;2023-06-24T05:25:29;97162.28;;;20.39;51.59
75815;BME280;70031;45.570;14.228;2023-06-24T05:27:30;97167.84;;;20.43;53.47
75815;BME280;70031;45.570;14.228;2023-06-24T05:29:30;97189.06;;;20.58;53.16
75815;BME280;70031;45.570;14.228;2023-06-24T05:31:30;97187.59;;;20.61;53.19
75815;BME280;70031;45.570;14.228;2023-06-24T05:33:31;97186.25;;;20.83;52.24
75815;BME280;70031;45.570;14.228;2023-06-24T05:35:32;97182.38;;;20.96;51.15
75815;BME280;70031;45.570;14.228;2023-06-24T05:37:33;97194.78;;;20.93;52.49
75815;BME280;70031;45.570;14.228;2023-06-24T05:39:33;97202.53;;;21.03;49.02
75815;BME280;70031;45.570;14.228;2023-06-24T05:41:34;97196.84;;;20.96;48.93
75815;BME280;70031;45.570;14.228;2023-06-24T05:43:35;97192.50;;;20.95;49.71
75815;BME280;70031;45.570;14.228;2023-06-24T05:45:36;97192.16;;;20.97;48.80
75815;BME280;70031;45.570;14.228;2023-06-24T05:47:37;97204.13;;;20.92;50.31
75815;BME280;70031;45.570;14.228;2023-06-24T05:49:38;97199.28;;;20.86;51.70
75815;BME280;70031;45.570;14.228;2023-06-24T05:51:38;97203.25;;;20.76;52.53
75815;BME280;70031;45.570;14.228;2023-06-24T05:53:39;97191.53;;;20.75;50.08
75815;BME280;70031;45.570;14.228;2023-06-24T05:55:40;97220.47;;;20.76;52.50
75815;BME280;70031;45.570;14.228;2023-06-24T05:57:40;97206.13;;;20.67;51.77
75815;BME280;70031;45.570;14.228;2023-06-24T05:59:40;97207.94;;;20.88;49.09
75815;BME280;70031;45.570;14.228;2023-06-24T06:01:41;97192.22;;;20.72;48.00
75815;BME280;70031;45.570;14.228;2023-06-24T06:03:41;97205.69;;;21.06;47.61
75815;BME280;70031;45.570;14.228;2023-06-24T06:05:42;97198.19;;;21.58;47.23
75815;BME280;70031;45.570;14.228;2023-06-24T06:07:42;97199.81;;;22.07;46.25
75815;BME280;70031;45.570;14.228;2023-06-24T06:09:43;97191.28;;;22.08;45.74
75815;BME280;70031;45.570;14.228;2023-06-24T06:11:44;97205.06;;;22.43;45.99
75815;BME280;70031;45.570;14.228;2023-06-24T06:13:44;97198.06;;;22.46;45.48
75815;BME280;70031;45.570;14.228;2023-06-24T06:15:45;97209.53;;;23.22;44.91
75815;BME280;70031;45.570;14.228;2023-06-24T06:17:46;97201.31;;;23.84;42.50
75815;BME280;70031;45.570;14.228;2023-06-24T06:19:46;97200.41;;;22.63;44.54
75815;BME280;70031;45.570;14.228;2023-06-24T06:21:49;97212.41;;;22.08;46.32
75815;BME280;70031;45.570;14.228;2023-06-24T06:23:49;97220.81;;;22.31;46.41
75815;BME280;70031;45.570;14.228;2023-06-24T06:25:49;97213.50;;;23.24;44.35
75815;BME280;70031;45.570;14.228;2023-06-24T06:27:50;97218.03;;;23.17;44.16
75815;BME280;70031;45.570;14.228;2023-06-24T06:29:50;97226.69;;;22.64;46.08
75815;BME280;70031;45.570;14.228;2023-06-24T06:31:51;97230.19;;;22.81;45.38
75815;BME280;70031;45.570;14.228;2023-06-24T06:33:52;97234.31;;;23.84;43.72
75815;BME280;70031;45.570;14.228;2023-06-24T06:35:53;97241.88;;;24.85;41.88
75815;BME280;70031;45.570;14.228;2023-06-24T06:37:54;97244.75;;;24.92;40.59
75815;BME280;70031;45.570;14.228;2023-06-24T06:39:54;97232.09;;;24.16;42.51
75815;BME280;70031;45.570;14.228;2023-06-24T06:41:54;97228.44;;;24.54;42.88
75815;BME280;70031;45.570;14.228;2023-06-24T06:43:55;97233.13;;;25.70;41.03
75815;BME280;70031;45.570;14.228;2023-06-24T06:45:55;97227.56;;;26.99;39.72
75815;BME280;70031;45.570;14.228;2023-06-24T06:47:56;97222.78;;;26.93;36.77
75815;BME280;70031;45.570;14.228;2023-06-24T06:49:56;97222.97;;;27.28;37.10
75815;BME280;70031;45.570;14.228;2023-06-24T06:51:57;97220.00;;;25.93;38.88
75815;BME280;70031;45.570;14.228;2023-06-24T06:54:00;97225.53;;;25.93;38.57
75815;BME280;70031;45.570;14.228;2023-06-24T06:56:02;97218.88;;;25.64;39.79
75815;BME280;70031;45.570;14.228;2023-06-24T06:58:02;97223.41;;;24.33;41.72
75815;BME280;70031;45.570;14.228;2023-06-24T07:00:03;97222.81;;;24.47;41.86
75815;BME280;70031;45.570;14.228;2023-06-24T07:02:05;97230.00;;;24.55;42.67
75815;BME280;70031;45.570;14.228;2023-06-24T07:04:05;97221.53;;;24.41;41.09
75815;BME280;70031;45.570;14.228;2023-06-24T07:06:05;97228.81;;;24.29;42.33
75815;BME280;70031;45.570;14.228;2023-06-24T07:08:06;97225.91;;;24.42;42.28
75815;BME280;70031;45.570;14.228;2023-06-24T07:10:07;97231.97;;;24.54;42.94
75815;BME280;70031;45.570;14.228;2023-06-24T07:12:08;97228.44;;;24.54;42.22
75815;BME280;70031;45.570;14.228;2023-06-24T07:14:08;97213.25;;;24.63;41.88
75815;BME280;70031;45.570;14.228;2023-06-24T07:16:09;97212.84;;;24.16;41.60
75815;BME280;70031;45.570;14.228;2023-06-24T07:18:09;97222.19;;;24.57;43.36
75815;BME280;70031;45.570;14.228;2023-06-24T07:20:10;97220.56;;;24.52;41.87
75815;BME280;70031;45.570;14.228;2023-06-24T07:22:10;97215.25;;;24.93;41.49
75815;BME280;70031;45.570;14.228;2023-06-24T07:24:11;97221.66;;;25.31;41.51
75815;BME280;70031;45.570;14.228;2023-06-24T07:26:11;97214.63;;;25.03;39.67
75815;BME280;70031;45.570;14.228;2023-06-24T07:28:11;97209.97;;;25.74;39.12
75815;BME280;70031;45.570;14.228;2023-06-24T07:30:12;97207.97;;;26.56;37.57
75815;BME280;70031;45.570;14.228;2023-06-24T07:32:12;97191.84;;;26.18;38.17
75815;BME280;70031;45.570;14.228;2023-06-24T07:34:13;97209.00;;;25.60;37.83
75815;BME280;70031;45.570;14.228;2023-06-24T07:36:13;97207.56;;;26.14;38.83
75815;BME280;70031;45.570;14.228;2023-06-24T07:38:13;97209.25;;;26.77;37.81
75815;BME280;70031;45.570;14.228;2023-06-24T07:40:14;97204.94;;;26.28;36.96
75815;BME280;70031;45.570;14.228;2023-06-24T07:42:15;97209.38;;;25.58;38.24
75815;BME280;70031;45.570;14.228;2023-06-24T07:44:18;97196.50;;;25.32;38.09
75815;BME280;70031;45.570;14.228;2023-06-24T07:46:19;97194.44;;;25.26;39.48
75815;BME280;70031;45.570;14.228;2023-06-24T07:48:20;97205.06;;;25.61;39.97
75815;BME280;70031;45.570;14.228;2023-06-24T07:50:20;97201.41;;;25.16;40.13
75815;BME280;70031;45.570;14.228;2023-06-24T07:52:21;97206.34;;;25.70;39.54
75815;BME280;70031;45.570;14.228;2023-06-24T07:54:24;97211.56;;;26.20;39.58
75815;BME280;70031;45.570;14.228;2023-06-24T07:56:24;97211.34;;;26.39;38.36
75815;BME280;70031;45.570;14.228;2023-06-24T07:58:24;97215.59;;;25.52;39.07
75815;BME280;70031;45.570;14.228;2023-06-24T08:00:25;97202.31;;;24.97;38.52
75815;BME280;70031;45.570;14.228;2023-06-24T08:02:25;97208.72;;;25.05;41.24
75815;BME280;70031;45.570;14.228;2023-06-24T08:04:26;97199.00;;;24.84;39.36
75815;BME280;70031;45.570;14.228;2023-06-24T08:06:26;97209.31;;;24.91;41.58
75815;BME280;70031;45.570;14.228;2023-06-24T08:08:27;97199.94;;;24.96;39.40
75815;BME280;70031;45.570;14.228;2023-06-24T08:10:27;97221.03;;;24.58;41.73
75815;BME280;70031;45.570;14.228;2023-06-24T08:12:28;97215.91;;;25.13;39.88
75815;BME280;70031;45.570;14.228;2023-06-24T08:14:28;97208.31;;;25.03;40.65
75815;BME280;70031;45.570;14.228;2023-06-24T08:16:28;97212.19;;;24.72;41.04
75815;BME280;70031;45.570;14.228;2023-06-24T08:18:29;97218.72;;;24.90;40.79
75815;BME280;70031;45.570;14.228;2023-06-24T08:20:29;97212.47;;;25.19;40.75
75815;BME280;70031;45.570;14.228;2023-06-24T08:22:30;97222.41;;;25.61;39.28
75815;BME280;70031;45.570;14.228;2023-06-24T08:24:31;97224.38;;;25.61;39.26
75815;BME280;70031;45.570;14.228;2023-06-24T08:26:32;97213.44;;;25.34;41.10
75815;BME280;70031;45.570;14.228;2023-06-24T08:28:32;97236.00;;;24.87;41.16
75815;BME280;70031;45.570;14.228;2023-06-24T08:30:32;97211.38;;;24.45;42.33
75815;BME280;70031;45.570;14.228;2023-06-24T08:32:33;97227.16;;;24.02;42.56
75815;BME280;70031;45.570;14.228;2023-06-24T08:34:33;97222.72;;;24.66;41.61
75815;BME280;70031;45.570;14.228;2023-06-24T08:36:34;97228.63;;;25.21;42.71
75815;BME280;70031;45.570;14.228;2023-06-24T08:38:34;97223.97;;;25.62;40.56
75815;BME280;70031;45.570;14.228;2023-06-24T08:40:35;97227.13;;;25.61;40.61
75815;BME280;70031;45.570;14.228;2023-06-24T08:42:36;97230.41;;;25.40;41.98
75815;BME280;70031;45.570;14.228;2023-06-24T08:44:36;97233.28;;;24.90;42.04
75815;BME280;70031;45.570;14.228;2023-06-24T08:46:36;97218.53;;;24.76;42.36
75815;BME280;70031;45.570;14.228;2023-06-24T08:48:39;97223.00;;;24.12;43.03
75815;BME280;70031;45.570;14.228;2023-06-24T08:50:43;97231.44;;;23.76;45.42
75815;BME280;70031;45.570;14.228;2023-06-24T08:52:50;97224.63;;;24.16;43.27
75815;BME280;70031;45.570;14.228;2023-06-24T08:54:55;97222.03;;;24.46;45.33
75815;BME280;70031;45.570;14.228;2023-06-24T08:56:55;97225.91;;;24.98;43.06
75815;BME280;70031;45.570;14.228;2023-06-24T08:58:56;97223.25;;;24.75;42.13
75815;BME280;70031;45.570;14.228;2023-06-24T09:00:57;97224.34;;;24.44;48.06
75815;BME280;70031;45.570;14.228;2023-06-24T09:02:57;97233.72;;;24.17;45.71
75815;BME280;70031;45.570;14.228;2023-06-24T09:04:59;97222.28;;;24.64;43.67
75815;BME280;70031;45.570;14.228;2023-06-24T09:06:59;97230.50;;;24.60;44.71
75815;BME280;70031;45.570;14.228;2023-06-24T09:09:00;97221.16;;;24.19;44.49
75815;BME280;70031;45.570;14.228;2023-06-24T09:11:04;97224.22;;;24.60;44.47
75815;BME280;70031;45.570;14.228;2023-06-24T09:13:06;97210.59;;;24.21;44.02
75815;BME280;70031;45.570;14.228;2023-06-24T09:15:14;97214.94;;;23.76;44.44
75815;BME280;70031;45.570;14.228;2023-06-24T09:17:16;97221.56;;;23.56;45.82
75815;BME280;70031;45.570;14.228;2023-06-24T09:19:20;97217.13;;;24.13;44.53
75815;BME280;70031;45.570;14.228;2023-06-24T09:21:28;97224.34;;;23.98;43.81
75815;BME280;70031;45.570;14.228;2023-06-24T09:23:35;97228.88;;;23.48;45.25
75815;BME280;70031;45.570;14.228;2023-06-24T09:25:36;97232.22;;;23.19;45.61
75815;BME280;70031;45.570;14.228;2023-06-24T09:27:36;97226.38;;;23.01;47.46
75815;BME280;70031;45.570;14.228;2023-06-24T09:29:37;97223.69;;;22.69;46.23
75815;BME280;70031;45.570;14.228;2023-06-24T09:31:47;97226.88;;;22.56;48.11
75815;BME280;70031;45.570;14.228;2023-06-24T09:33:48;97240.16;;;22.54;47.94
75815;BME280;70031;45.570;14.228;2023-06-24T09:35:49;97246.88;;;22.56;47.84
75815;BME280;70031;45.570;14.228;2023-06-24T09:37:58;97239.91;;;22.43;46.73
75815;BME280;70031;45.570;14.228;2023-06-24T09:40:01;97233.78;;;22.50;47.56
75815;BME280;70031;45.570;14.228;2023-06-24T09:42:06;97237.84;;;22.56;46.79
75815;BME280;70031;45.570;14.228;2023-06-24T09:44:10;97230.22;;;22.65;46.69
75815;BME280;70031;45.570;14.228;2023-06-24T09:46:11;97223.78;;;22.57;45.58
75815;BME280;70031;45.570;14.228;2023-06-24T09:48:11;97229.34;;;22.61;46.20
75815;BME280;70031;45.570;14.228;2023-06-24T09:50:12;97225.69;;;22.73;45.25
75815;BME280;70031;45.570;14.228;2023-06-24T09:52:13;97250.97;;;22.82;46.56
75815;BME280;70031;45.570;14.228;2023-06-24T09:54:16;97230.81;;;22.90;47.49
75815;BME280;70031;45.570;14.228;2023-06-24T09:56:17;97220.56;;;22.87;45.87
75815;BME280;70031;45.570;14.228;2023-06-24T09:58:18;97223.47;;;22.94;47.22
75815;BME280;70031;45.570;14.228;2023-06-24T10:00:19;97231.34;;;23.15;46.28
75815;BME280;70031;45.570;14.228;2023-06-24T10:02:21;97231.16;;;23.43;46.71
75815;BME280;70031;45.570;14.228;2023-06-24T10:04:21;97240.97;;;23.63;45.27
75815;BME280;70031;45.570;14.228;2023-06-24T10:06:24;97233.59;;;23.48;45.70
75815;BME280;70031;45.570;14.228;2023-06-24T10:08:27;97230.41;;;23.46;45.11
75815;BME280;70031;45.570;14.228;2023-06-24T10:10:27;97226.63;;;23.73;48.02
75815;BME280;70031;45.570;14.228;2023-06-24T10:12:28;97220.84;;;23.78;45.50
75815;BME280;70031;45.570;14.228;2023-06-24T10:14:30;97229.13;;;24.01;43.30
75815;BME280;70031;45.570;14.228;2023-06-24T10:16:30;97232.97;;;24.20;46.08
75815;BME280;70031;45.570;14.228;2023-06-24T10:20:36;97209.53;;;25.39;44.09
75815;BME280;70031;45.570;14.228;2023-06-24T10:22:36;97210.53;;;25.91;48.39
75815;BME280;70031;45.570;14.228;2023-06-24T10:24:39;97213.09;;;26.14;41.69
75815;BME280;70031;45.570;14.228;2023-06-24T10:26:39;97214.25;;;26.09;40.06
75815;BME280;70031;45.570;14.228;2023-06-24T10:31:05;97205.66;;;25.73;44.15
75815;BME280;70031;45.570;14.228;2023-06-24T10:33:10;97201.81;;;25.52;39.21
75815;BME280;70031;45.570;14.228;2023-06-24T10:35:40;97204.66;;;25.59;42.75
75815;BME280;70031;45.570;14.228;2023-06-24T10:37:54;97201.94;;;25.62;40.79
75815;BME280;70031;45.570;14.228;2023-06-24T10:41:55;97194.53;;;25.70;40.21
75815;BME280;70031;45.570;14.228;2023-06-24T10:44:14;97203.97;;;26.06;44.87
75815;BME280;70031;45.570;14.228;2023-06-24T10:46:26;97189.34;;;26.46;39.78
75815;BME280;70031;45.570;14.228;2023-06-24T10:48:30;97197.50;;;26.91;43.33
75815;BME280;70031;45.570;14.228;2023-06-24T10:50:33;97198.06;;;26.55;39.77
75815;BME280;70031;45.570;14.228;2023-06-24T10:52:46;97185.22;;;26.81;37.90